sensor_id;sensor_type;location;lat;lon;timestamp;pressure;altitude;pressure_sealevel;temperature;humidity
47556;BME280;33291;46.222;26.460;2022-08-14T00:00:46;96018.72;;;18.01;96.39
47556;BME280;33291;46.222;26.460;2022-08-14T00:05:44;96012.44;;;18.02;96.34
47556;BME280;33291;46.222;26.460;2022-08-14T00:08:10;96010.44;;;18.04;96.18
47556;BME280;33291;46.222;26.460;2022-08-14T00:10:35;96011.63;;;18.08;96.09
47556;BME280;33291;46.222;26.460;2022-08-14T00:13:01;96016.31;;;18.06;95.92
47556;BME280;33291;46.222;26.460;2022-08-14T00:15:33;96016.91;;;18.08;95.91
47556;BME280;33291;46.222;26.460;2022-08-14T00:17:59;95997.66;;;18.01;95.86
47556;BME280;33291;46.222;26.460;2022-08-14T00:20:28;96004.13;;;17.98;96.46
47556;BME280;33291;46.222;26.460;2022-08-14T00:22:53;96002.91;;;18.01;96.35
47556;BME280;33291;46.222;26.460;2022-08-14T00:25:19;96012.63;;;18.00;96.50
47556;BME280;33291;46.222;26.460;2022-08-14T00:27:45;96001.69;;;17.97;96.76
47556;BME280;33291;46.222;26.460;2022-08-14T00:30:12;96007.94;;;17.96;96.92
47556;BME280;33291;46.222;26.460;2022-08-14T00:32:38;96006.31;;;17.94;97.31
47556;BME280;33291;46.222;26.460;2022-08-14T00:35:05;95995.78;;;17.94;97.31
47556;BME280;33291;46.222;26.460;2022-08-14T00:37:32;95987.22;;;17.86;97.49
47556;BME280;33291;46.222;26.460;2022-08-14T00:39:58;96003.06;;;17.92;97.29
47556;BME280;33291;46.222;26.460;2022-08-14T00:42:24;95973.59;;;17.75;97.30
47556;BME280;33291;46.222;26.460;2022-08-14T00:44:50;95998.19;;;17.89;97.29
47556;BME280;33291;46.222;26.460;2022-08-14T00:47:17;96000.19;;;17.87;97.15
47556;BME280;33291;46.222;26.460;2022-08-14T00:49:43;95995.94;;;17.86;97.30
47556;BME280;33291;46.222;26.460;2022-08-14T00:52:11;95995.72;;;17.88;97.31
47556;BME280;33291;46.222;26.460;2022-08-14T00:54:37;95992.28;;;17.87;97.47
47556;BME280;33291;46.222;26.460;2022-08-14T00:57:03;95991.66;;;17.85;97.51
47556;BME280;33291;46.222;26.460;2022-08-14T00:59:29;95982.75;;;17.80;97.50
47556;BME280;33291;46.222;26.460;2022-08-14T01:01:58;95994.28;;;17.85;97.48
47556;BME280;33291;46.222;26.460;2022-08-14T01:04:26;95998.56;;;17.86;97.53
47556;BME280;33291;46.222;26.460;2022-08-14T01:06:53;95997.53;;;17.81;98.50
47556;BME280;33291;46.222;26.460;2022-08-14T01:09:19;95996.13;;;17.85;98.19
47556;BME280;33291;46.222;26.460;2022-08-14T01:11:49;95995.31;;;17.84;98.10
47556;BME280;33291;46.222;26.460;2022-08-14T01:14:16;95989.22;;;17.84;98.07
47556;BME280;33291;46.222;26.460;2022-08-14T01:16:42;95995.38;;;17.91;97.76
47556;BME280;33291;46.222;26.460;2022-08-14T01:19:08;95994.94;;;17.87;97.81
47556;BME280;33291;46.222;26.460;2022-08-14T01:21:52;95987.63;;;17.83;97.67
47556;BME280;33291;46.222;26.460;2022-08-14T01:24:18;95988.41;;;17.83;97.74
47556;BME280;33291;46.222;26.460;2022-08-14T01:26:45;95989.66;;;17.87;97.85
47556;BME280;33291;46.222;26.460;2022-08-14T01:29:11;95999.56;;;17.85;98.18
47556;BME280;33291;46.222;26.460;2022-08-14T01:31:38;96002.00;;;17.87;98.13
47556;BME280;33291;46.222;26.460;2022-08-14T01:34:10;95988.00;;;17.80;98.27
47556;BME280;33291;46.222;26.460;2022-08-14T01:36:36;95989.63;;;17.81;98.65
47556;BME280;33291;46.222;26.460;2022-08-14T01:39:11;96000.78;;;17.83;98.59
47556;BME280;33291;46.222;26.460;2022-08-14T01:41:37;95983.72;;;17.72;98.83
47556;BME280;33291;46.222;26.460;2022-08-14T01:44:08;95984.34;;;17.74;99.48
47556;BME280;33291;46.222;26.460;2022-08-14T01:46:38;95981.09;;;17.72;99.88
47556;BME280;33291;46.222;26.460;2022-08-14T01:49:07;95992.44;;;17.72;99.86
47556;BME280;33291;46.222;26.460;2022-08-14T01:51:34;95987.56;;;17.76;99.59
47556;BME280;33291;46.222;26.460;2022-08-14T01:54:05;95986.78;;;17.75;99.22
47556;BME280;33291;46.222;26.460;2022-08-14T01:56:32;95992.69;;;17.84;99.14
47556;BME280;33291;46.222;26.460;2022-08-14T02:01:55;95982.16;;;17.84;98.94
47556;BME280;33291;46.222;26.460;2022-08-14T02:04:24;95980.53;;;17.83;98.95
47556;BME280;33291;46.222;26.460;2022-08-14T02:06:50;95974.00;;;17.79;98.79
47556;BME280;33291;46.222;26.460;2022-08-14T02:09:17;95982.34;;;17.83;98.87
47556;BME280;33291;46.222;26.460;2022-08-14T02:11:44;95977.03;;;17.76;99.29
47556;BME280;33291;46.222;26.460;2022-08-14T02:14:11;95974.19;;;17.71;99.42
47556;BME280;33291;46.222;26.460;2022-08-14T02:16:48;95978.03;;;17.68;99.57
47556;BME280;33291;46.222;26.460;2022-08-14T02:19:20;95979.47;;;17.71;99.45
47556;BME280;33291;46.222;26.460;2022-08-14T02:21:48;95979.06;;;17.74;99.46
47556;BME280;33291;46.222;26.460;2022-08-14T02:24:15;95964.84;;;17.68;99.27
47556;BME280;33291;46.222;26.460;2022-08-14T02:26:42;95973.81;;;17.74;99.25
47556;BME280;33291;46.222;26.460;2022-08-14T02:29:14;95977.44;;;17.73;99.07
47556;BME280;33291;46.222;26.460;2022-08-14T02:31:44;95973.78;;;17.67;99.23
47556;BME280;33291;46.222;26.460;2022-08-14T02:34:33;95969.28;;;17.61;99.13
47556;BME280;33291;46.222;26.460;2022-08-14T02:37:06;95976.78;;;17.64;98.87
47556;BME280;33291;46.222;26.460;2022-08-14T02:39:42;95983.28;;;17.62;98.97
47556;BME280;33291;46.222;26.460;2022-08-14T02:42:13;95976.16;;;17.55;98.85
47556;BME280;33291;46.222;26.460;2022-08-14T02:44:42;95971.88;;;17.54;98.99
47556;BME280;33291;46.222;26.460;2022-08-14T02:47:09;95981.44;;;17.55;99.07
47556;BME280;33291;46.222;26.460;2022-08-14T02:49:35;95982.22;;;17.56;99.42
47556;BME280;33291;46.222;26.460;2022-08-14T02:52:03;95989.06;;;17.50;98.94
47556;BME280;33291;46.222;26.460;2022-08-14T02:54:33;95988.06;;;17.51;98.78
47556;BME280;33291;46.222;26.460;2022-08-14T02:56:59;95993.34;;;17.51;99.20
47556;BME280;33291;46.222;26.460;2022-08-14T02:59:27;95985.03;;;17.48;99.14
47556;BME280;33291;46.222;26.460;2022-08-14T03:01:56;95973.22;;;17.37;99.43
47556;BME280;33291;46.222;26.460;2022-08-14T03:04:22;95981.34;;;17.42;99.40
47556;BME280;33291;46.222;26.460;2022-08-14T03:06:49;95965.50;;;17.35;99.54
47556;BME280;33291;46.222;26.460;2022-08-14T03:09:15;95979.72;;;17.41;99.52
47556;BME280;33291;46.222;26.460;2022-08-14T03:11:41;95973.03;;;17.38;99.49
47556;BME280;33291;46.222;26.460;2022-08-14T03:14:09;95975.22;;;17.35;99.39
47556;BME280;33291;46.222;26.460;2022-08-14T03:16:37;95982.13;;;17.36;99.44
47556;BME280;33291;46.222;26.460;2022-08-14T03:19:04;95982.47;;;17.26;100.00
47556;BME280;33291;46.222;26.460;2022-08-14T03:21:32;95982.06;;;17.29;100.00
47556;BME280;33291;46.222;26.460;2022-08-14T03:23:58;95980.66;;;17.27;100.00
47556;BME280;33291;46.222;26.460;2022-08-14T03:26:41;95970.31;;;17.25;100.00
47556;BME280;33291;46.222;26.460;2022-08-14T03:29:08;95982.91;;;17.30;100.00
47556;BME280;33291;46.222;26.460;2022-08-14T03:31:33;95959.94;;;17.17;100.00
47556;BME280;33291;46.222;26.460;2022-08-14T03:34:05;95975.19;;;17.28;100.00
47556;BME280;33291;46.222;26.460;2022-08-14T03:36:32;95966.25;;;17.22;100.00
47556;BME280;33291;46.222;26.460;2022-08-14T03:38:58;95979.63;;;17.28;100.00
47556;BME280;33291;46.222;26.460;2022-08-14T03:41:26;95974.75;;;17.25;100.00
47556;BME280;33291;46.222;26.460;2022-08-14T03:43:58;95979.81;;;17.26;100.00
47556;BME280;33291;46.222;26.460;2022-08-14T03:46:26;95978.63;;;17.29;100.00
47556;BME280;33291;46.222;26.460;2022-08-14T03:48:53;95984.50;;;17.31;99.83
47556;BME280;33291;46.222;26.460;2022-08-14T03:51:20;95977.00;;;17.28;99.85
47556;BME280;33291;46.222;26.460;2022-08-14T03:53:47;95983.09;;;17.28;99.86
47556;BME280;33291;46.222;26.460;2022-08-14T03:56:14;95972.13;;;17.25;99.72
47556;BME280;33291;46.222;26.460;2022-08-14T03:58:46;95981.28;;;17.29;99.97
47556;BME280;33291;46.222;26.460;2022-08-14T04:01:16;95983.13;;;17.35;99.90
47556;BME280;33291;46.222;26.460;2022-08-14T04:03:50;95981.88;;;17.31;100.00
47556;BME280;33291;46.222;26.460;2022-08-14T04:06:17;95982.06;;;17.29;100.00
47556;BME280;33291;46.222;26.460;2022-08-14T04:08:45;95981.88;;;17.31;100.00
47556;BME280;33291;46.222;26.460;2022-08-14T04:11:11;95983.31;;;17.33;100.00
47556;BME280;33291;46.222;26.460;2022-08-14T04:13:39;95981.34;;;17.42;100.00
47556;BME280;33291;46.222;26.460;2022-08-14T04:16:11;95991.28;;;17.47;100.00
47556;BME280;33291;46.222;26.460;2022-08-14T04:18:39;95963.50;;;17.37;100.00
47556;BME280;33291;46.222;26.460;2022-08-14T04:21:06;95976.56;;;17.52;100.00
47556;BME280;33291;46.222;26.460;2022-08-14T04:23:31;95972.28;;;17.51;100.00
47556;BME280;33291;46.222;26.460;2022-08-14T04:25:58;95978.97;;;17.54;100.00
47556;BME280;33291;46.222;26.460;2022-08-14T04:28:24;95940.00;;;17.36;100.00
47556;BME280;33291;46.222;26.460;2022-08-14T04:30:50;95971.50;;;17.57;100.00
47556;BME280;33291;46.222;26.460;2022-08-14T04:33:16;95964.19;;;17.59;100.00
47556;BME280;33291;46.222;26.460;2022-08-14T04:35:41;95973.75;;;17.61;100.00
47556;BME280;33291;46.222;26.460;2022-08-14T04:38:09;95981.25;;;17.64;100.00
47556;BME280;33291;46.222;26.460;2022-08-14T04:40:53;95972.75;;;17.62;100.00
47556;BME280;33291;46.222;26.460;2022-08-14T04:43:37;95972.94;;;17.67;100.00
47556;BME280;33291;46.222;26.460;2022-08-14T04:46:22;95968.53;;;17.74;100.00
47556;BME280;33291;46.222;26.460;2022-08-14T04:48:49;95967.13;;;17.78;100.00
47556;BME280;33291;46.222;26.460;2022-08-14T04:51:17;95961.69;;;17.86;100.00
47556;BME280;33291;46.222;26.460;2022-08-14T04:53:46;95960.31;;;17.90;100.00
47556;BME280;33291;46.222;26.460;2022-08-14T04:56:16;95959.91;;;17.93;100.00
47556;BME280;33291;46.222;26.460;2022-08-14T04:58:50;95954.84;;;17.92;100.00
47556;BME280;33291;46.222;26.460;2022-08-14T05:01:23;95951.22;;;18.00;100.00
47556;BME280;33291;46.222;26.460;2022-08-14T05:03:49;95947.97;;;18.04;100.00
47556;BME280;33291;46.222;26.460;2022-08-14T05:06:15;95951.25;;;18.13;100.00
47556;BME280;33291;46.222;26.460;2022-08-14T05:08:40;95941.31;;;18.15;100.00
47556;BME280;33291;46.222;26.460;2022-08-14T05:11:08;95942.34;;;18.21;100.00
47556;BME280;33291;46.222;26.460;2022-08-14T05:13:35;95938.69;;;18.22;100.00
47556;BME280;33291;46.222;26.460;2022-08-14T05:16:05;95943.56;;;18.32;100.00
47556;BME280;33291;46.222;26.460;2022-08-14T05:18:34;95949.28;;;18.42;100.00
47556;BME280;33291;46.222;26.460;2022-08-14T05:21:05;95944.19;;;18.54;100.00
47556;BME280;33291;46.222;26.460;2022-08-14T05:23:33;95937.50;;;18.64;100.00
47556;BME280;33291;46.222;26.460;2022-08-14T05:26:00;95927.34;;;18.68;100.00
47556;BME280;33291;46.222;26.460;2022-08-14T05:28:32;95940.31;;;18.76;100.00
47556;BME280;33291;46.222;26.460;2022-08-14T05:31:01;95937.06;;;18.81;100.00
47556;BME280;33291;46.222;26.460;2022-08-14T05:33:27;95938.72;;;18.89;100.00
47556;BME280;33291;46.222;26.460;2022-08-14T05:35:55;95933.25;;;18.90;100.00
47556;BME280;33291;46.222;26.460;2022-08-14T05:38:33;95930.22;;;18.93;100.00
47556;BME280;33291;46.222;26.460;2022-08-14T05:41:04;95933.63;;;19.00;100.00
47556;BME280;33291;46.222;26.460;2022-08-14T05:43:30;95929.78;;;19.03;100.00
47556;BME280;33291;46.222;26.460;2022-08-14T05:45:57;95912.94;;;18.97;100.00
47556;BME280;33291;46.222;26.460;2022-08-14T05:48:23;95921.84;;;19.10;100.00
47556;BME280;33291;46.222;26.460;2022-08-14T05:50:49;95918.38;;;19.16;100.00
47556;BME280;33291;46.222;26.460;2022-08-14T05:53:15;95916.16;;;19.20;99.70
47556;BME280;33291;46.222;26.460;2022-08-14T05:55:41;95918.38;;;19.23;99.81
47556;BME280;33291;46.222;26.460;2022-08-14T05:58:08;95921.59;;;19.25;99.97
47556;BME280;33291;46.222;26.460;2022-08-14T06:00:37;95926.88;;;19.31;99.78
47556;BME280;33291;46.222;26.460;2022-08-14T06:03:08;95928.06;;;19.35;99.76
47556;BME280;33291;46.222;26.460;2022-08-14T06:05:35;95920.34;;;19.34;99.28
47556;BME280;33291;46.222;26.460;2022-08-14T06:08:01;95931.28;;;19.44;98.58
47556;BME280;33291;46.222;26.460;2022-08-14T06:10:28;95929.03;;;19.48;98.82
47556;BME280;33291;46.222;26.460;2022-08-14T06:12:59;95932.91;;;19.52;98.78
47556;BME280;33291;46.222;26.460;2022-08-14T06:15:27;95933.50;;;19.54;98.45
47556;BME280;33291;46.222;26.460;2022-08-14T06:17:53;95935.75;;;19.57;98.22
47556;BME280;33291;46.222;26.460;2022-08-14T06:20:21;95925.38;;;19.56;98.96
47556;BME280;33291;46.222;26.460;2022-08-14T06:22:47;95930.63;;;19.62;99.20
47556;BME280;33291;46.222;26.460;2022-08-14T06:25:13;95934.28;;;19.68;99.04
47556;BME280;33291;46.222;26.460;2022-08-14T06:27:44;95925.09;;;19.70;98.81
47556;BME280;33291;46.222;26.460;2022-08-14T06:30:19;95934.81;;;19.77;98.44
47556;BME280;33291;46.222;26.460;2022-08-14T06:32:46;95926.28;;;19.81;98.32
47556;BME280;33291;46.222;26.460;2022-08-14T06:35:12;95935.00;;;19.88;98.06
47556;BME280;33291;46.222;26.460;2022-08-14T06:37:50;95925.22;;;19.96;97.26
47556;BME280;33291;46.222;26.460;2022-08-14T06:40:27;95918.06;;;20.03;96.65
47556;BME280;33291;46.222;26.460;2022-08-14T06:42:56;95920.44;;;20.11;95.76
47556;BME280;33291;46.222;26.460;2022-08-14T06:45:21;95924.44;;;20.20;94.97
47556;BME280;33291;46.222;26.460;2022-08-14T06:47:47;95924.00;;;20.30;94.35
47556;BME280;33291;46.222;26.460;2022-08-14T06:50:18;95926.72;;;20.42;94.33
47556;BME280;33291;46.222;26.460;2022-08-14T06:52:45;95924.63;;;20.51;92.81
47556;BME280;33291;46.222;26.460;2022-08-14T06:55:12;95916.81;;;20.63;92.45
47556;BME280;33291;46.222;26.460;2022-08-14T06:57:46;95920.69;;;20.67;91.90
47556;BME280;33291;46.222;26.460;2022-08-14T07:00:18;95910.63;;;20.75;91.39
47556;BME280;33291;46.222;26.460;2022-08-14T07:02:44;95909.78;;;20.82;91.02
47556;BME280;33291;46.222;26.460;2022-08-14T07:05:29;95902.78;;;20.87;90.50
47556;BME280;33291;46.222;26.460;2022-08-14T07:08:28;95907.94;;;21.01;89.89
47556;BME280;33291;46.222;26.460;2022-08-14T07:10:56;95910.53;;;21.07;89.18
47556;BME280;33291;46.222;26.460;2022-08-14T07:13:23;95920.25;;;21.14;89.08
47556;BME280;33291;46.222;26.460;2022-08-14T07:15:52;95908.63;;;21.15;88.77
47556;BME280;33291;46.222;26.460;2022-08-14T07:18:22;95910.03;;;21.17;88.89
47556;BME280;33291;46.222;26.460;2022-08-14T07:20:48;95901.28;;;21.17;88.61
47556;BME280;33291;46.222;26.460;2022-08-14T07:23:14;95915.44;;;21.22;88.90
47556;BME280;33291;46.222;26.460;2022-08-14T07:25:41;95913.84;;;21.21;89.87
47556;BME280;33291;46.222;26.460;2022-08-14T07:28:13;95895.09;;;21.23;89.65
47556;BME280;33291;46.222;26.460;2022-08-14T07:30:39;95911.69;;;21.30;89.13
47556;BME280;33291;46.222;26.460;2022-08-14T07:33:05;95906.41;;;21.30;88.30
47556;BME280;33291;46.222;26.460;2022-08-14T07:35:32;95904.28;;;21.39;87.28
47556;BME280;33291;46.222;26.460;2022-08-14T07:37:58;95910.53;;;21.44;86.35
47556;BME280;33291;46.222;26.460;2022-08-14T07:40:24;95917.63;;;21.51;86.13
47556;BME280;33291;46.222;26.460;2022-08-14T07:42:50;95909.38;;;21.59;85.16
47556;BME280;33291;46.222;26.460;2022-08-14T07:45:16;95905.19;;;21.70;84.69
47556;BME280;33291;46.222;26.460;2022-08-14T07:47:42;95900.50;;;21.83;83.05
47556;BME280;33291;46.222;26.460;2022-08-14T07:50:17;95899.50;;;21.96;84.01
47556;BME280;33291;46.222;26.460;2022-08-14T07:52:44;95904.16;;;22.13;81.92
47556;BME280;33291;46.222;26.460;2022-08-14T07:55:13;95906.63;;;22.26;80.50
47556;BME280;33291;46.222;26.460;2022-08-14T07:57:40;95912.00;;;22.38;79.23
47556;BME280;33291;46.222;26.460;2022-08-14T08:00:14;95906.81;;;22.43;77.75
47556;BME280;33291;46.222;26.460;2022-08-14T08:02:43;95907.06;;;22.53;78.58
47556;BME280;33291;46.222;26.460;2022-08-14T08:05:10;95900.72;;;22.66;79.13
47556;BME280;33291;46.222;26.460;2022-08-14T08:07:37;95894.59;;;22.78;77.47
47556;BME280;33291;46.222;26.460;2022-08-14T08:10:10;95909.94;;;22.87;74.84
47556;BME280;33291;46.222;26.460;2022-08-14T08:13:00;95903.16;;;22.92;76.59
47556;BME280;33291;46.222;26.460;2022-08-14T08:15:29;95906.50;;;22.99;76.14
47556;BME280;33291;46.222;26.460;2022-08-14T08:17:58;95899.56;;;22.98;73.54
47556;BME280;33291;46.222;26.460;2022-08-14T08:20:25;95892.06;;;22.95;74.26
47556;BME280;33291;46.222;26.460;2022-08-14T08:22:52;95892.63;;;22.97;75.29
47556;BME280;33291;46.222;26.460;2022-08-14T08:25:27;95888.00;;;23.04;75.48
47556;BME280;33291;46.222;26.460;2022-08-14T08:28:08;95899.78;;;23.20;74.29
47556;BME280;33291;46.222;26.460;2022-08-14T08:30:36;95889.53;;;23.23;73.81
47556;BME280;33291;46.222;26.460;2022-08-14T08:33:02;95875.50;;;23.40;73.22
47556;BME280;33291;46.222;26.460;2022-08-14T08:35:30;95866.78;;;23.56;71.31
47556;BME280;33291;46.222;26.460;2022-08-14T08:38:03;95877.47;;;23.73;70.53
47556;BME280;33291;46.222;26.460;2022-08-14T08:40:35;95885.44;;;23.73;69.48
47556;BME280;33291;46.222;26.460;2022-08-14T08:43:06;95884.75;;;23.78;69.92
47556;BME280;33291;46.222;26.460;2022-08-14T08:45:34;95876.66;;;23.73;71.94
47556;BME280;33291;46.222;26.460;2022-08-14T08:48:01;95868.50;;;23.63;72.34
47556;BME280;33291;46.222;26.460;2022-08-14T08:50:38;95880.97;;;23.62;77.27
47556;BME280;33291;46.222;26.460;2022-08-14T08:53:09;95878.31;;;23.62;76.87
47556;BME280;33291;46.222;26.460;2022-08-14T08:55:38;95873.47;;;23.59;74.87
47556;BME280;33291;46.222;26.460;2022-08-14T08:58:10;95875.81;;;23.55;74.74
47556;BME280;33291;46.222;26.460;2022-08-14T09:00:38;95859.63;;;23.57;75.85
47556;BME280;33291;46.222;26.460;2022-08-14T09:03:12;95862.59;;;23.60;75.08
47556;BME280;33291;46.222;26.460;2022-08-14T09:10:44;95857.44;;;23.54;75.70
47556;BME280;33291;46.222;26.460;2022-08-14T09:13:11;95855.25;;;23.51;73.14
47556;BME280;33291;46.222;26.460;2022-08-14T09:15:41;95860.88;;;23.54;75.45
47556;BME280;33291;46.222;26.460;2022-08-14T09:18:08;95861.47;;;23.56;74.49
47556;BME280;33291;46.222;26.460;2022-08-14T09:20:37;95843.44;;;23.58;72.76
47556;BME280;33291;46.222;26.460;2022-08-14T09:23:03;95854.06;;;23.58;75.49
47556;BME280;33291;46.222;26.460;2022-08-14T09:25:30;95836.97;;;23.54;75.13
47556;BME280;33291;46.222;26.460;2022-08-14T09:27:55;95838.19;;;23.64;74.52
47556;BME280;33291;46.222;26.460;2022-08-14T09:30:21;95838.88;;;23.71;72.13
47556;BME280;33291;46.222;26.460;2022-08-14T09:45:52;95811.91;;;23.50;74.82
47556;BME280;33291;46.222;26.460;2022-08-14T09:48:22;95816.28;;;23.56;73.84
47556;BME280;33291;46.222;26.460;2022-08-14T09:50:55;95817.16;;;23.62;76.00
47556;BME280;33291;46.222;26.460;2022-08-14T09:53:43;95792.53;;;23.67;74.31
47556;BME280;33291;46.222;26.460;2022-08-14T09:56:12;95792.28;;;23.68;74.14
47556;BME280;33291;46.222;26.460;2022-08-14T09:58:40;95795.53;;;23.70;73.30
47556;BME280;33291;46.222;26.460;2022-08-14T10:01:09;95795.84;;;23.74;74.30
47556;BME280;33291;46.222;26.460;2022-08-14T10:03:36;95791.81;;;23.71;74.56
47556;BME280;33291;46.222;26.460;2022-08-14T10:06:12;95788.06;;;23.84;74.88
47556;BME280;33291;46.222;26.460;2022-08-14T10:08:48;95794.22;;;24.02;75.15
47556;BME280;33291;46.222;26.460;2022-08-14T10:13:45;95783.47;;;24.30;72.50
47556;BME280;33291;46.222;26.460;2022-08-14T10:16:11;95768.09;;;24.33;70.76
47556;BME280;33291;46.222;26.460;2022-08-14T10:18:38;95763.50;;;24.28;68.22
47556;BME280;33291;46.222;26.460;2022-08-14T10:21:07;95774.28;;;24.38;69.05
47556;BME280;33291;46.222;26.460;2022-08-14T10:23:40;95776.19;;;24.43;68.63
47556;BME280;33291;46.222;26.460;2022-08-14T10:26:08;95765.41;;;24.50;68.11
47556;BME280;33291;46.222;26.460;2022-08-14T10:28:42;95755.63;;;24.55;66.96
47556;BME280;33291;46.222;26.460;2022-08-14T10:31:21;95755.72;;;24.60;66.28
47556;BME280;33291;46.222;26.460;2022-08-14T10:33:59;95759.69;;;24.58;66.05
47556;BME280;33291;46.222;26.460;2022-08-14T10:36:27;95752.28;;;24.60;66.45
47556;BME280;33291;46.222;26.460;2022-08-14T10:38:58;95736.66;;;24.52;66.93
47556;BME280;33291;46.222;26.460;2022-08-14T10:41:36;95757.47;;;24.55;67.54
47556;BME280;33291;46.222;26.460;2022-08-14T10:44:09;95737.66;;;24.45;66.11
47556;BME280;33291;46.222;26.460;2022-08-14T10:46:45;95749.41;;;24.67;67.77
47556;BME280;33291;46.222;26.460;2022-08-14T10:49:24;95752.75;;;24.79;64.61
47556;BME280;33291;46.222;26.460;2022-08-14T10:52:00;95748.84;;;24.87;64.16
47556;BME280;33291;46.222;26.460;2022-08-14T10:57:21;95732.41;;;25.17;61.73
47556;BME280;33291;46.222;26.460;2022-08-14T10:59:55;95738.78;;;25.38;58.87
47556;BME280;33291;46.222;26.460;2022-08-14T11:02:32;95740.41;;;25.39;59.66
47556;BME280;33291;46.222;26.460;2022-08-14T11:05:07;95736.38;;;25.36;59.96
47556;BME280;33291;46.222;26.460;2022-08-14T11:07:38;95743.34;;;25.38;61.03
47556;BME280;33291;46.222;26.460;2022-08-14T11:10:11;95718.84;;;25.18;61.18
47556;BME280;33291;46.222;26.460;2022-08-14T11:15:05;95759.34;;;25.38;62.23
47556;BME280;33291;46.222;26.460;2022-08-14T11:17:32;95762.91;;;25.26;61.31
47556;BME280;33291;46.222;26.460;2022-08-14T11:20:03;95768.72;;;25.23;62.22
47556;BME280;33291;46.222;26.460;2022-08-14T11:22:30;95761.81;;;25.22;62.12
47556;BME280;33291;46.222;26.460;2022-08-14T11:25:01;95760.34;;;25.31;62.40
47556;BME280;33291;46.222;26.460;2022-08-14T11:27:30;95759.94;;;25.45;61.22
47556;BME280;33291;46.222;26.460;2022-08-14T11:30:05;95740.81;;;25.53;57.94
47556;BME280;33291;46.222;26.460;2022-08-14T11:32:32;95746.53;;;25.67;58.13
47556;BME280;33291;46.222;26.460;2022-08-14T11:35:01;95735.16;;;25.77;56.83
47556;BME280;33291;46.222;26.460;2022-08-14T11:37:30;95725.66;;;25.91;57.74
47556;BME280;33291;46.222;26.460;2022-08-14T11:39:59;95719.63;;;26.01;56.21
47556;BME280;33291;46.222;26.460;2022-08-14T11:42:27;95725.34;;;26.15;56.12
47556;BME280;33291;46.222;26.460;2022-08-14T11:44:57;95711.25;;;26.24;56.06
47556;BME280;33291;46.222;26.460;2022-08-14T11:47:23;95686.38;;;26.14;54.96
47556;BME280;33291;46.222;26.460;2022-08-14T11:49:48;95708.06;;;26.28;54.10
47556;BME280;33291;46.222;26.460;2022-08-14T11:52:15;95694.97;;;26.26;54.33
47556;BME280;33291;46.222;26.460;2022-08-14T11:54:42;95690.22;;;26.38;54.26
47556;BME280;33291;46.222;26.460;2022-08-14T11:57:17;95685.22;;;26.47;53.40
47556;BME280;33291;46.222;26.460;2022-08-14T11:59:44;95686.56;;;26.50;54.76
47556;BME280;33291;46.222;26.460;2022-08-14T12:02:12;95680.19;;;26.61;51.80
47556;BME280;33291;46.222;26.460;2022-08-14T12:04:50;95719.81;;;26.69;49.02
47556;BME280;33291;46.222;26.460;2022-08-14T12:07:17;95710.66;;;26.65;49.61
47556;BME280;33291;46.222;26.460;2022-08-14T12:09:43;95710.63;;;26.60;49.20
47556;BME280;33291;46.222;26.460;2022-08-14T12:14:53;95715.41;;;26.53;48.39
47556;BME280;33291;46.222;26.460;2022-08-14T12:17:28;95704.69;;;26.48;49.84
47556;BME280;33291;46.222;26.460;2022-08-14T12:19:56;95698.56;;;26.52;49.64
47556;BME280;33291;46.222;26.460;2022-08-14T12:24:58;95698.38;;;26.64;45.48
47556;BME280;33291;46.222;26.460;2022-08-14T12:27:38;95699.41;;;26.58;46.17
47556;BME280;33291;46.222;26.460;2022-08-14T12:30:05;95709.44;;;26.35;47.06
47556;BME280;33291;46.222;26.460;2022-08-14T12:32:38;95723.13;;;26.06;47.55
47556;BME280;33291;46.222;26.460;2022-08-14T12:35:05;95716.31;;;25.88;48.08
47556;BME280;33291;46.222;26.460;2022-08-14T12:37:30;95728.50;;;25.79;49.37
47556;BME280;33291;46.222;26.460;2022-08-14T12:40:08;95730.25;;;25.63;50.22
47556;BME280;33291;46.222;26.460;2022-08-14T12:42:37;95741.31;;;25.50;52.49
47556;BME280;33291;46.222;26.460;2022-08-14T12:45:04;95729.88;;;25.27;52.36
47556;BME280;33291;46.222;26.460;2022-08-14T12:47:30;95738.63;;;25.23;52.01
47556;BME280;33291;46.222;26.460;2022-08-14T12:49:56;95731.13;;;25.19;53.09
47556;BME280;33291;46.222;26.460;2022-08-14T12:52:42;95734.84;;;25.18;51.98
47556;BME280;33291;46.222;26.460;2022-08-14T12:55:14;95725.50;;;25.16;52.78
47556;BME280;33291;46.222;26.460;2022-08-14T12:57:45;95723.34;;;25.13;52.21
47556;BME280;33291;46.222;26.460;2022-08-14T13:00:14;95711.50;;;25.04;52.33
47556;BME280;33291;46.222;26.460;2022-08-14T13:02:42;95700.91;;;25.09;52.63
47556;BME280;33291;46.222;26.460;2022-08-14T13:05:10;95684.41;;;25.12;52.94
47556;BME280;33291;46.222;26.460;2022-08-14T13:07:37;95684.53;;;25.22;54.27
47556;BME280;33291;46.222;26.460;2022-08-14T13:10:09;95674.41;;;25.24;54.04
47556;BME280;33291;46.222;26.460;2022-08-14T13:12:38;95683.63;;;25.39;54.79
47556;BME280;33291;46.222;26.460;2022-08-14T13:15:08;95685.28;;;25.45;54.21
47556;BME280;33291;46.222;26.460;2022-08-14T13:17:42;95662.34;;;25.44;52.77
47556;BME280;33291;46.222;26.460;2022-08-14T13:20:10;95659.44;;;25.45;56.30
47556;BME280;33291;46.222;26.460;2022-08-14T13:22:37;95673.53;;;25.41;55.19
47556;BME280;33291;46.222;26.460;2022-08-14T13:25:06;95674.63;;;25.45;55.54
47556;BME280;33291;46.222;26.460;2022-08-14T13:27:32;95672.53;;;25.52;55.63
47556;BME280;33291;46.222;26.460;2022-08-14T13:30:01;95668.31;;;25.56;57.78
47556;BME280;33291;46.222;26.460;2022-08-14T13:32:28;95666.44;;;25.57;58.87
47556;BME280;33291;46.222;26.460;2022-08-14T13:34:54;95668.47;;;25.44;59.35